sensor_id;sensor_type;location;lat;lon;timestamp;P1;durP1;ratioP1;P2;durP2;ratioP2
37855;SDS011;23694;43.274;26.924;2023-05-19T00:01:41;12.73;;;8.13;;
37855;SDS011;23694;43.274;26.924;2023-05-19T00:04:13;13.73;;;8.63;;
37855;SDS011;23694;43.274;26.924;2023-05-19T00:06:40;11.30;;;8.30;;
37855;SDS011;23694;43.274;26.924;2023-05-19T00:09:07;15.13;;;9.43;;
37855;SDS011;23694;43.274;26.924;2023-05-19T00:11:35;12.70;;;9.33;;
37855;SDS011;23694;43.274;26.924;2023-05-19T00:14:03;12.80;;;8.20;;
37855;SDS011;23694;43.274;26.924;2023-05-19T00:16:31;11.63;;;8.63;;
37855;SDS011;23694;43.274;26.924;2023-05-19T00:18:58;10.73;;;8.90;;
37855;SDS011;23694;43.274;26.924;2023-05-19T00:21:25;13.33;;;9.07;;
37855;SDS011;23694;43.274;26.924;2023-05-19T00:23:52;12.30;;;8.97;;
37855;SDS011;23694;43.274;26.924;2023-05-19T00:26:19;12.47;;;9.53;;
37855;SDS011;23694;43.274;26.924;2023-05-19T00:28:48;16.80;;;9.67;;
37855;SDS011;23694;43.274;26.924;2023-05-19T00:31:14;15.93;;;9.37;;
37855;SDS011;23694;43.274;26.924;2023-05-19T00:33:41;12.80;;;10.13;;
37855;SDS011;23694;43.274;26.924;2023-05-19T00:36:07;13.60;;;9.10;;
37855;SDS011;23694;43.274;26.924;2023-05-19T00:38:34;14.23;;;9.67;;
37855;SDS011;23694;43.274;26.924;2023-05-19T00:41:02;15.07;;;9.43;;
37855;SDS011;23694;43.274;26.924;2023-05-19T00:43:29;16.70;;;9.90;;
37855;SDS011;23694;43.274;26.924;2023-05-19T00:45:55;12.60;;;10.03;;
37855;SDS011;23694;43.274;26.924;2023-05-19T00:48:23;13.13;;;10.13;;
37855;SDS011;23694;43.274;26.924;2023-05-19T00:50:50;11.63;;;9.80;;
37855;SDS011;23694;43.274;26.924;2023-05-19T00:53:19;13.57;;;10.60;;
37855;SDS011;23694;43.274;26.924;2023-05-19T00:55:46;14.30;;;10.10;;
37855;SDS011;23694;43.274;26.924;2023-05-19T00:58:12;14.97;;;10.40;;
37855;SDS011;23694;43.274;26.924;2023-05-19T01:00:39;15.67;;;9.10;;
37855;SDS011;23694;43.274;26.924;2023-05-19T01:03:07;14.53;;;10.17;;
37855;SDS011;23694;43.274;26.924;2023-05-19T01:05:37;11.97;;;9.33;;
37855;SDS011;23694;43.274;26.924;2023-05-19T01:08:04;11.03;;;9.47;;
37855;SDS011;23694;43.274;26.924;2023-05-19T01:10:31;17.47;;;10.20;;
37855;SDS011;23694;43.274;26.924;2023-05-19T01:12:57;14.27;;;9.47;;
37855;SDS011;23694;43.274;26.924;2023-05-19T01:15:23;14.00;;;8.93;;
37855;SDS011;23694;43.274;26.924;2023-05-19T01:17:57;12.77;;;10.10;;
37855;SDS011;23694;43.274;26.924;2023-05-19T01:20:46;14.80;;;9.63;;
37855;SDS011;23694;43.274;26.924;2023-05-19T01:23:32;12.37;;;9.63;;
37855;SDS011;23694;43.274;26.924;2023-05-19T01:26:21;13.33;;;9.50;;
37855;SDS011;23694;43.274;26.924;2023-05-19T01:32:07;14.30;;;9.50;;
37855;SDS011;23694;43.274;26.924;2023-05-19T01:34:36;14.17;;;9.83;;
37855;SDS011;23694;43.274;26.924;2023-05-19T01:37:06;11.93;;;8.68;;
37855;SDS011;23694;43.274;26.924;2023-05-19T01:39:34;12.50;;;10.23;;
37855;SDS011;23694;43.274;26.924;2023-05-19T01:42:00;13.93;;;9.43;;
37855;SDS011;23694;43.274;26.924;2023-05-19T01:44:27;14.57;;;9.10;;
37855;SDS011;23694;43.274;26.924;2023-05-19T01:46:53;17.67;;;10.10;;
37855;SDS011;23694;43.274;26.924;2023-05-19T01:49:20;13.40;;;9.97;;
37855;SDS011;23694;43.274;26.924;2023-05-19T01:51:47;15.93;;;9.73;;
37855;SDS011;23694;43.274;26.924;2023-05-19T01:54:14;15.80;;;10.47;;
37855;SDS011;23694;43.274;26.924;2023-05-19T01:56:49;13.07;;;9.37;;
37855;SDS011;23694;43.274;26.924;2023-05-19T01:59:59;13.87;;;10.10;;
37855;SDS011;23694;43.274;26.924;2023-05-19T02:02:25;13.83;;;10.83;;
37855;SDS011;23694;43.274;26.924;2023-05-19T02:05:06;12.80;;;10.30;;
37855;SDS011;23694;43.274;26.924;2023-05-19T02:07:43;19.00;;;11.13;;
37855;SDS011;23694;43.274;26.924;2023-05-19T02:10:22;12.83;;;9.93;;
37855;SDS011;23694;43.274;26.924;2023-05-19T02:12:55;13.40;;;9.90;;
37855;SDS011;23694;43.274;26.924;2023-05-19T02:15:27;17.50;;;9.93;;
37855;SDS011;23694;43.274;26.924;2023-05-19T02:17:59;15.07;;;9.70;;
37855;SDS011;23694;43.274;26.924;2023-05-19T02:20:29;15.83;;;10.27;;
37855;SDS011;23694;43.274;26.924;2023-05-19T02:22:56;13.37;;;10.17;;
37855;SDS011;23694;43.274;26.924;2023-05-19T02:25:22;17.57;;;10.63;;
37855;SDS011;23694;43.274;26.924;2023-05-19T02:27:49;15.87;;;9.83;;
37855;SDS011;23694;43.274;26.924;2023-05-19T02:30:16;14.53;;;10.90;;
37855;SDS011;23694;43.274;26.924;2023-05-19T02:32:42;17.67;;;10.67;;
37855;SDS011;23694;43.274;26.924;2023-05-19T02:35:11;15.23;;;10.60;;
37855;SDS011;23694;43.274;26.924;2023-05-19T02:37:38;15.73;;;10.47;;
37855;SDS011;23694;43.274;26.924;2023-05-19T02:40:04;21.63;;;11.30;;
37855;SDS011;23694;43.274;26.924;2023-05-19T02:42:31;17.20;;;10.97;;
37855;SDS011;23694;43.274;26.924;2023-05-19T02:44:57;18.30;;;11.20;;
37855;SDS011;23694;43.274;26.924;2023-05-19T02:47:23;17.03;;;11.20;;
37855;SDS011;23694;43.274;26.924;2023-05-19T02:49:49;15.97;;;10.70;;
37855;SDS011;23694;43.274;26.924;2023-05-19T02:52:15;16.97;;;12.07;;
37855;SDS011;23694;43.274;26.924;2023-05-19T02:54:41;15.30;;;11.63;;
37855;SDS011;23694;43.274;26.924;2023-05-19T02:57:07;19.63;;;12.60;;
37855;SDS011;23694;43.274;26.924;2023-05-19T02:59:33;15.63;;;11.80;;
37855;SDS011;23694;43.274;26.924;2023-05-19T03:02:00;18.50;;;11.37;;
37855;SDS011;23694;43.274;26.924;2023-05-19T03:04:27;17.33;;;12.03;;
37855;SDS011;23694;43.274;26.924;2023-05-19T03:06:54;14.93;;;11.70;;
37855;SDS011;23694;43.274;26.924;2023-05-19T03:09:20;19.60;;;13.07;;
37855;SDS011;23694;43.274;26.924;2023-05-19T03:11:46;20.23;;;12.17;;
37855;SDS011;23694;43.274;26.924;2023-05-19T03:14:12;22.20;;;13.33;;
37855;SDS011;23694;43.274;26.924;2023-05-19T03:16:38;24.73;;;13.47;;
37855;SDS011;23694;43.274;26.924;2023-05-19T03:19:06;22.90;;;14.30;;
37855;SDS011;23694;43.274;26.924;2023-05-19T03:21:33;18.13;;;12.30;;
37855;SDS011;23694;43.274;26.924;2023-05-19T03:23:59;22.83;;;13.73;;
37855;SDS011;23694;43.274;26.924;2023-05-19T03:26:26;22.47;;;13.30;;
37855;SDS011;23694;43.274;26.924;2023-05-19T03:28:54;24.67;;;13.23;;
37855;SDS011;23694;43.274;26.924;2023-05-19T03:31:20;18.00;;;13.13;;
37855;SDS011;23694;43.274;26.924;2023-05-19T03:33:46;25.03;;;14.17;;
37855;SDS011;23694;43.274;26.924;2023-05-19T03:36:12;23.93;;;13.00;;
37855;SDS011;23694;43.274;26.924;2023-05-19T03:38:38;20.63;;;13.07;;
37855;SDS011;23694;43.274;26.924;2023-05-19T03:41:04;20.33;;;13.10;;
37855;SDS011;23694;43.274;26.924;2023-05-19T03:43:30;17.03;;;12.40;;
37855;SDS011;23694;43.274;26.924;2023-05-19T03:45:56;23.13;;;12.77;;
37855;SDS011;23694;43.274;26.924;2023-05-19T03:48:22;21.67;;;12.93;;
37855;SDS011;23694;43.274;26.924;2023-05-19T03:50:48;17.93;;;11.70;;
37855;SDS011;23694;43.274;26.924;2023-05-19T03:53:14;20.70;;;13.27;;
37855;SDS011;23694;43.274;26.924;2023-05-19T03:55:40;20.37;;;13.03;;
37855;SDS011;23694;43.274;26.924;2023-05-19T03:58:06;21.10;;;11.70;;
37855;SDS011;23694;43.274;26.924;2023-05-19T04:00:32;19.57;;;12.00;;
37855;SDS011;23694;43.274;26.924;2023-05-19T04:02:58;17.83;;;12.53;;
37855;SDS011;23694;43.274;26.924;2023-05-19T04:05:24;19.73;;;12.93;;
37855;SDS011;23694;43.274;26.924;2023-05-19T04:07:50;18.80;;;13.20;;
37855;SDS011;23694;43.274;26.924;2023-05-19T04:10:16;22.53;;;13.17;;
37855;SDS011;23694;43.274;26.924;2023-05-19T04:12:43;16.27;;;12.40;;
37855;SDS011;23694;43.274;26.924;2023-05-19T04:15:09;19.90;;;12.97;;
37855;SDS011;23694;43.274;26.924;2023-05-19T04:17:36;17.90;;;12.50;;
37855;SDS011;23694;43.274;26.924;2023-05-19T04:20:02;20.27;;;12.07;;
37855;SDS011;23694;43.274;26.924;2023-05-19T04:22:31;21.90;;;12.93;;
37855;SDS011;23694;43.274;26.924;2023-05-19T04:24:57;19.70;;;13.10;;
37855;SDS011;23694;43.274;26.924;2023-05-19T04:27:23;19.73;;;12.87;;
37855;SDS011;23694;43.274;26.924;2023-05-19T04:29:52;22.33;;;12.90;;
37855;SDS011;23694;43.274;26.924;2023-05-19T04:32:19;22.10;;;13.20;;
37855;SDS011;23694;43.274;26.924;2023-05-19T04:34:45;21.30;;;13.00;;
37855;SDS011;23694;43.274;26.924;2023-05-19T04:37:11;18.17;;;12.87;;
37855;SDS011;23694;43.274;26.924;2023-05-19T04:39:39;22.23;;;13.23;;
37855;SDS011;23694;43.274;26.924;2023-05-19T04:42:08;20.60;;;13.57;;
37855;SDS011;23694;43.274;26.924;2023-05-19T04:44:39;22.07;;;13.67;;
37855;SDS011;23694;43.274;26.924;2023-05-19T04:47:06;21.33;;;13.90;;
37855;SDS011;23694;43.274;26.924;2023-05-19T04:49:33;19.33;;;12.93;;
37855;SDS011;23694;43.274;26.924;2023-05-19T04:52:06;16.37;;;12.27;;
37855;SDS011;23694;43.274;26.924;2023-05-19T04:54:35;23.80;;;13.38;;
37855;SDS011;23694;43.274;26.924;2023-05-19T04:57:02;25.23;;;13.30;;
37855;SDS011;23694;43.274;26.924;2023-05-19T04:59:28;21.83;;;13.20;;
37855;SDS011;23694;43.274;26.924;2023-05-19T05:01:55;21.47;;;12.73;;
37855;SDS011;23694;43.274;26.924;2023-05-19T05:04:22;17.57;;;12.30;;
37855;SDS011;23694;43.274;26.924;2023-05-19T05:06:48;18.60;;;13.47;;
37855;SDS011;23694;43.274;26.924;2023-05-19T05:09:15;31.60;;;20.90;;
37855;SDS011;23694;43.274;26.924;2023-05-19T05:11:42;39.67;;;24.97;;
37855;SDS011;23694;43.274;26.924;2023-05-19T05:14:08;32.80;;;18.47;;
37855;SDS011;23694;43.274;26.924;2023-05-19T05:16:35;29.00;;;17.87;;
37855;SDS011;23694;43.274;26.924;2023-05-19T05:19:01;20.87;;;13.60;;
37855;SDS011;23694;43.274;26.924;2023-05-19T05:21:28;35.43;;;25.20;;
37855;SDS011;23694;43.274;26.924;2023-05-19T05:23:54;22.73;;;13.83;;
37855;SDS011;23694;43.274;26.924;2023-05-19T05:26:21;17.80;;;13.07;;
37855;SDS011;23694;43.274;26.924;2023-05-19T05:28:48;20.37;;;13.30;;
37855;SDS011;23694;43.274;26.924;2023-05-19T05:31:14;29.20;;;19.87;;
37855;SDS011;23694;43.274;26.924;2023-05-19T05:33:41;20.97;;;13.03;;
37855;SDS011;23694;43.274;26.924;2023-05-19T05:36:07;23.80;;;17.30;;
37855;SDS011;23694;43.274;26.924;2023-05-19T05:38:34;20.33;;;14.10;;
37855;SDS011;23694;43.274;26.924;2023-05-19T05:41:00;31.57;;;15.50;;
37855;SDS011;23694;43.274;26.924;2023-05-19T05:43:28;21.77;;;14.20;;
37855;SDS011;23694;43.274;26.924;2023-05-19T05:45:55;30.87;;;18.70;;
37855;SDS011;23694;43.274;26.924;2023-05-19T05:48:21;21.63;;;13.90;;
37855;SDS011;23694;43.274;26.924;2023-05-19T05:50:48;24.20;;;13.47;;
37855;SDS011;23694;43.274;26.924;2023-05-19T05:53:18;18.10;;;13.50;;
37855;SDS011;23694;43.274;26.924;2023-05-19T05:55:46;20.60;;;13.60;;
37855;SDS011;23694;43.274;26.924;2023-05-19T05:58:12;20.00;;;13.07;;
37855;SDS011;23694;43.274;26.924;2023-05-19T06:00:39;35.60;;;16.30;;
37855;SDS011;23694;43.274;26.924;2023-05-19T06:03:09;28.77;;;14.20;;
37855;SDS011;23694;43.274;26.924;2023-05-19T06:05:36;25.27;;;14.53;;
37855;SDS011;23694;43.274;26.924;2023-05-19T06:08:02;64.17;;;30.67;;
37855;SDS011;23694;43.274;26.924;2023-05-19T06:10:29;19.37;;;14.47;;
37855;SDS011;23694;43.274;26.924;2023-05-19T06:12:55;24.07;;;13.77;;
37855;SDS011;23694;43.274;26.924;2023-05-19T06:15:21;19.80;;;14.07;;
37855;SDS011;23694;43.274;26.924;2023-05-19T06:17:47;19.33;;;13.13;;
37855;SDS011;23694;43.274;26.924;2023-05-19T06:20:14;21.77;;;13.40;;
37855;SDS011;23694;43.274;26.924;2023-05-19T06:22:40;21.97;;;14.20;;
37855;SDS011;23694;43.274;26.924;2023-05-19T06:25:07;19.23;;;13.77;;
37855;SDS011;23694;43.274;26.924;2023-05-19T06:27:33;33.83;;;20.43;;
37855;SDS011;23694;43.274;26.924;2023-05-19T06:30:00;20.30;;;13.63;;
37855;SDS011;23694;43.274;26.924;2023-05-19T06:32:26;45.53;;;35.23;;
37855;SDS011;23694;43.274;26.924;2023-05-19T06:34:54;23.90;;;15.23;;
37855;SDS011;23694;43.274;26.924;2023-05-19T06:37:20;22.13;;;14.40;;
37855;SDS011;23694;43.274;26.924;2023-05-19T06:39:53;21.63;;;14.60;;
37855;SDS011;23694;43.274;26.924;2023-05-19T06:42:19;24.57;;;14.33;;
37855;SDS011;23694;43.274;26.924;2023-05-19T06:44:50;19.27;;;14.13;;
37855;SDS011;23694;43.274;26.924;2023-05-19T06:47:17;23.50;;;14.50;;
37855;SDS011;23694;43.274;26.924;2023-05-19T06:49:44;19.50;;;13.00;;
37855;SDS011;23694;43.274;26.924;2023-05-19T06:52:10;18.93;;;12.17;;
37855;SDS011;23694;43.274;26.924;2023-05-19T06:54:37;18.53;;;12.83;;
37855;SDS011;23694;43.274;26.924;2023-05-19T06:57:03;21.30;;;13.20;;
37855;SDS011;23694;43.274;26.924;2023-05-19T06:59:29;20.57;;;12.47;;
37855;SDS011;23694;43.274;26.924;2023-05-19T07:01:55;20.23;;;12.93;;
37855;SDS011;23694;43.274;26.924;2023-05-19T07:04:21;20.80;;;12.97;;
37855;SDS011;23694;43.274;26.924;2023-05-19T07:06:47;18.33;;;12.93;;
37855;SDS011;23694;43.274;26.924;2023-05-19T07:09:14;20.40;;;12.95;;
37855;SDS011;23694;43.274;26.924;2023-05-19T07:11:40;20.17;;;13.43;;
37855;SDS011;23694;43.274;26.924;2023-05-19T07:14:06;22.27;;;12.30;;
37855;SDS011;23694;43.274;26.924;2023-05-19T07:16:32;18.15;;;13.05;;
37855;SDS011;23694;43.274;26.924;2023-05-19T07:18:58;19.88;;;12.65;;
37855;SDS011;23694;43.274;26.924;2023-05-19T07:21:25;19.65;;;13.13;;
37855;SDS011;23694;43.274;26.924;2023-05-19T07:23:51;17.40;;;12.25;;
37855;SDS011;23694;43.274;26.924;2023-05-19T07:26:17;19.70;;;12.70;;
37855;SDS011;23694;43.274;26.924;2023-05-19T07:28:43;19.30;;;12.43;;
37855;SDS011;23694;43.274;26.924;2023-05-19T07:31:09;14.50;;;11.77;;
37855;SDS011;23694;43.274;26.924;2023-05-19T07:33:35;16.33;;;11.52;;
37855;SDS011;23694;43.274;26.924;2023-05-19T07:36:01;19.35;;;11.90;;
37855;SDS011;23694;43.274;26.924;2023-05-19T07:38:29;16.08;;;12.15;;
37855;SDS011;23694;43.274;26.924;2023-05-19T07:40:59;18.63;;;11.13;;
37855;SDS011;23694;43.274;26.924;2023-05-19T07:43:26;16.88;;;10.52;;
37855;SDS011;23694;43.274;26.924;2023-05-19T07:45:52;15.75;;;11.23;;
37855;SDS011;23694;43.274;26.924;2023-05-19T07:48:21;17.73;;;10.88;;
37855;SDS011;23694;43.274;26.924;2023-05-19T07:50:49;18.65;;;11.20;;
37855;SDS011;23694;43.274;26.924;2023-05-19T07:53:17;18.48;;;11.35;;
37855;SDS011;23694;43.274;26.924;2023-05-19T07:55:44;16.20;;;10.52;;
37855;SDS011;23694;43.274;26.924;2023-05-19T07:58:10;13.20;;;10.52;;
37855;SDS011;23694;43.274;26.924;2023-05-19T08:00:36;17.20;;;10.20;;
37855;SDS011;23694;43.274;26.924;2023-05-19T08:03:02;14.32;;;9.82;;
37855;SDS011;23694;43.274;26.924;2023-05-19T08:05:29;13.90;;;10.18;;
37855;SDS011;23694;43.274;26.924;2023-05-19T08:07:55;15.13;;;9.93;;
37855;SDS011;23694;43.274;26.924;2023-05-19T08:10:21;13.18;;;9.90;;
37855;SDS011;23694;43.274;26.924;2023-05-19T08:12:47;13.82;;;9.82;;
37855;SDS011;23694;43.274;26.924;2023-05-19T08:15:13;11.82;;;9.55;;
37855;SDS011;23694;43.274;26.924;2023-05-19T08:17:41;17.67;;;10.10;;
37855;SDS011;23694;43.274;26.924;2023-05-19T08:20:07;13.60;;;10.57;;
37855;SDS011;23694;43.274;26.924;2023-05-19T08:22:35;15.55;;;9.68;;
37855;SDS011;23694;43.274;26.924;2023-05-19T08:25:01;17.15;;;9.45;;
37855;SDS011;23694;43.274;26.924;2023-05-19T08:27:28;11.20;;;8.70;;
37855;SDS011;23694;43.274;26.924;2023-05-19T08:29:54;13.52;;;9.93;;
37855;SDS011;23694;43.274;26.924;2023-05-19T08:32:21;12.30;;;8.48;;
37855;SDS011;23694;43.274;26.924;2023-05-19T08:34:48;13.38;;;9.38;;
37855;SDS011;23694;43.274;26.924;2023-05-19T08:37:14;14.70;;;9.88;;
37855;SDS011;23694;43.274;26.924;2023-05-19T08:39:40;14.57;;;9.82;;
37855;SDS011;23694;43.274;26.924;2023-05-19T08:42:06;15.88;;;10.18;;
37855;SDS011;23694;43.274;26.924;2023-05-19T08:44:34;14.40;;;9.20;;
37855;SDS011;23694;43.274;26.924;2023-05-19T08:47:02;14.25;;;10.45;;
37855;SDS011;23694;43.274;26.924;2023-05-19T08:49:41;11.32;;;9.80;;
37855;SDS011;23694;43.274;26.924;2023-05-19T08:57:58;16.80;;;10.00;;
37855;SDS011;23694;43.274;26.924;2023-05-19T09:00:26;15.40;;;9.77;;
37855;SDS011;23694;43.274;26.924;2023-05-19T09:02:54;18.08;;;9.57;;
37855;SDS011;23694;43.274;26.924;2023-05-19T09:05:22;14.32;;;10.02;;
37855;SDS011;23694;43.274;26.924;2023-05-19T09:07:48;16.17;;;9.93;;
37855;SDS011;23694;43.274;26.924;2023-05-19T09:10:14;13.95;;;9.48;;
37855;SDS011;23694;43.274;26.924;2023-05-19T09:12:44;13.02;;;9.35;;
37855;SDS011;23694;43.274;26.924;2023-05-19T09:15:12;12.27;;;9.10;;
37855;SDS011;23694;43.274;26.924;2023-05-19T09:17:42;16.92;;;9.40;;
37855;SDS011;23694;43.274;26.924;2023-05-19T09:20:09;13.90;;;9.65;;
37855;SDS011;23694;43.274;26.924;2023-05-19T09:22:45;15.23;;;10.30;;
37855;SDS011;23694;43.274;26.924;2023-05-19T09:27:45;15.82;;;9.95;;
37855;SDS011;23694;43.274;26.924;2023-05-19T09:30:12;17.40;;;9.85;;
37855;SDS011;23694;43.274;26.924;2023-05-19T09:32:39;13.48;;;10.23;;
37855;SDS011;23694;43.274;26.924;2023-05-19T09:35:05;14.05;;;9.68;;
37855;SDS011;23694;43.274;26.924;2023-05-19T09:37:32;13.15;;;9.85;;
37855;SDS011;23694;43.274;26.924;2023-05-19T09:39:58;14.63;;;10.10;;
37855;SDS011;23694;43.274;26.924;2023-05-19T09:42:25;14.70;;;10.25;;
37855;SDS011;23694;43.274;26.924;2023-05-19T09:45:01;13.05;;;10.02;;
37855;SDS011;23694;43.274;26.924;2023-05-19T09:47:34;15.00;;;10.20;;
37855;SDS011;23694;43.274;26.924;2023-05-19T09:50:07;12.75;;;10.13;;
37855;SDS011;23694;43.274;26.924;2023-05-19T09:52:37;14.30;;;9.10;;
37855;SDS011;23694;43.274;26.924;2023-05-19T09:55:08;18.35;;;10.00;;
37855;SDS011;23694;43.274;26.924;2023-05-19T09:57:37;15.13;;;10.25;;
37855;SDS011;23694;43.274;26.924;2023-05-19T10:00:05;18.52;;;11.07;;
37855;SDS011;23694;43.274;26.924;2023-05-19T10:02:44;14.88;;;10.32;;
37855;SDS011;23694;43.274;26.924;2023-05-19T10:05:15;16.02;;;10.27;;
37855;SDS011;23694;43.274;26.924;2023-05-19T10:07:45;16.05;;;10.20;;
37855;SDS011;23694;43.274;26.924;2023-05-19T10:10:14;20.85;;;10.20;;
37855;SDS011;23694;43.274;26.924;2023-05-19T10:12:40;16.67;;;10.48;;
37855;SDS011;23694;43.274;26.924;2023-05-19T10:15:08;16.35;;;9.90;;
37855;SDS011;23694;43.274;26.924;2023-05-19T10:17:39;16.40;;;10.50;;
37855;SDS011;23694;43.274;26.924;2023-05-19T10:20:10;15.27;;;9.82;;
37855;SDS011;23694;43.274;26.924;2023-05-19T10:22:42;16.58;;;9.75;;
37855;SDS011;23694;43.274;26.924;2023-05-19T10:25:10;14.73;;;10.18;;
37855;SDS011;23694;43.274;26.924;2023-05-19T10:27:41;17.15;;;10.32;;
37855;SDS011;23694;43.274;26.924;2023-05-19T10:30:16;19.50;;;10.77;;
37855;SDS011;23694;43.274;26.924;2023-05-19T10:32:45;14.53;;;10.87;;
37855;SDS011;23694;43.274;26.924;2023-05-19T10:40:59;17.53;;;10.93;;
37855;SDS011;23694;43.274;26.924;2023-05-19T10:46:13;18.20;;;12.73;;
37855;SDS011;23694;43.274;26.924;2023-05-19T10:48:42;19.80;;;12.27;;
37855;SDS011;23694;43.274;26.924;2023-05-19T10:51:10;18.95;;;11.63;;
37855;SDS011;23694;43.274;26.924;2023-05-19T10:53:39;17.70;;;11.30;;
37855;SDS011;23694;43.274;26.924;2023-05-19T10:56:10;15.87;;;11.30;;
37855;SDS011;23694;43.274;26.924;2023-05-19T10:58:53;20.63;;;11.90;;
37855;SDS011;23694;43.274;26.924;2023-05-19T11:01:19;14.93;;;9.10;;
37855;SDS011;23694;43.274;26.924;2023-05-19T11:03:55;12.67;;;7.77;;
37855;SDS011;23694;43.274;26.924;2023-05-19T11:06:28;15.57;;;8.77;;
37855;SDS011;23694;43.274;26.924;2023-05-19T11:08:58;13.27;;;8.10;;
37855;SDS011;23694;43.274;26.924;2023-05-19T11:11:25;12.83;;;7.27;;
37855;SDS011;23694;43.274;26.924;2023-05-19T11:14:07;9.32;;;5.93;;
37855;SDS011;23694;43.274;26.924;2023-05-19T11:16:36;11.27;;;6.90;;
37855;SDS011;23694;43.274;26.924;2023-05-19T11:19:06;18.53;;;7.90;;
37855;SDS011;23694;43.274;26.924;2023-05-19T11:21:48;11.43;;;7.40;;
37855;SDS011;23694;43.274;26.924;2023-05-19T11:27:17;12.97;;;7.03;;
37855;SDS011;23694;43.274;26.924;2023-05-19T11:29:44;15.27;;;7.60;;
37855;SDS011;23694;43.274;26.924;2023-05-19T11:32:13;9.83;;;8.00;;
37855;SDS011;23694;43.274;26.924;2023-05-19T11:34:40;14.97;;;9.17;;
37855;SDS011;23694;43.274;26.924;2023-05-19T11:37:06;21.50;;;10.40;;
37855;SDS011;23694;43.274;26.924;2023-05-19T11:39:33;18.00;;;11.57;;
37855;SDS011;23694;43.274;26.924;2023-05-19T11:42:00;15.07;;;10.20;;
37855;SDS011;23694;43.274;26.924;2023-05-19T11:44:26;14.52;;;10.85;;
37855;SDS011;23694;43.274;26.924;2023-05-19T11:46:52;15.65;;;10.05;;
37855;SDS011;23694;43.274;26.924;2023-05-19T11:49:18;13.88;;;8.52;;
37855;SDS011;23694;43.274;26.924;2023-05-19T11:51:44;11.70;;;7.30;;
37855;SDS011;23694;43.274;26.924;2023-05-19T11:54:11;10.27;;;7.20;;
37855;SDS011;23694;43.274;26.924;2023-05-19T11:56:41;12.93;;;7.25;;
37855;SDS011;23694;43.274;26.924;2023-05-19T11:59:07;12.93;;;8.30;;
37855;SDS011;23694;43.274;26.924;2023-05-19T12:01:34;12.20;;;8.88;;
37855;SDS011;23694;43.274;26.924;2023-05-19T12:04:01;13.48;;;9.25;;
37855;SDS011;23694;43.274;26.924;2023-05-19T12:06:27;12.52;;;7.97;;
37855;SDS011;23694;43.274;26.924;2023-05-19T12:08:54;11.80;;;8.05;;
37855;SDS011;23694;43.274;26.924;2023-05-19T12:11:20;12.20;;;7.70;;
37855;SDS011;23694;43.274;26.924;2023-05-19T12:13:47;11.25;;;7.55;;
37855;SDS011;23694;43.274;26.924;2023-05-19T12:16:18;8.70;;;7.45;;
37855;SDS011;23694;43.274;26.924;2023-05-19T12:18:45;10.45;;;7.25;;
37855;SDS011;23694;43.274;26.924;2023-05-19T12:21:11;13.77;;;7.82;;
37855;SDS011;23694;43.274;26.924;2023-05-19T12:23:37;12.45;;;8.10;;
37855;SDS011;23694;43.274;26.924;2023-05-19T12:26:04;10.93;;;8.00;;
37855;SDS011;23694;43.274;26.924;2023-05-19T12:28:31;11.35;;;7.05;;
37855;SDS011;23694;43.274;26.924;2023-05-19T12:30:57;11.85;;;6.43;;
37855;SDS011;23694;43.274;26.924;2023-05-19T12:33:23;11.00;;;6.47;;
37855;SDS011;23694;43.274;26.924;2023-05-19T12:35:50;7.72;;;5.95;;
37855;SDS011;23694;43.274;26.924;2023-05-19T12:38:17;9.88;;;6.20;;
37855;SDS011;23694;43.274;26.924;2023-05-19T12:40:44;9.65;;;6.07;;
37855;SDS011;23694;43.274;26.924;2023-05-19T12:43:20;11.25;;;6.00;;
37855;SDS011;23694;43.274;26.924;2023-05-19T12:45:47;10.48;;;6.13;;
37855;SDS011;23694;43.274;26.924;2023-05-19T12:48:13;11.52;;;6.38;;
37855;SDS011;23694;43.274;26.924;2023-05-19T12:50:41;12.80;;;6.72;;
37855;SDS011;23694;43.274;26.924;2023-05-19T12:53:10;12.45;;;7.22;;
37855;SDS011;23694;43.274;26.924;2023-05-19T12:55:37;13.75;;;7.65;;
37855;SDS011;23694;43.274;26.924;2023-05-19T12:58:06;10.57;;;7.45;;
37855;SDS011;23694;43.274;26.924;2023-05-19T13:00:32;11.52;;;8.35;;
37855;SDS011;23694;43.274;26.924;2023-05-19T13:03:06;16.55;;;8.85;;
37855;SDS011;23694;43.274;26.924;2023-05-19T13:05:37;14.15;;;8.52;;
37855;SDS011;23694;43.274;26.924;2023-05-19T13:08:08;14.38;;;8.35;;
37855;SDS011;23694;43.274;26.924;2023-05-19T13:10:39;11.02;;;8.02;;
37855;SDS011;23694;43.274;26.924;2023-05-19T13:13:07;14.35;;;7.97;;
37855;SDS011;23694;43.274;26.924;2023-05-19T13:15:35;12.93;;;7.10;;
37855;SDS011;23694;43.274;26.924;2023-05-19T13:18:04;13.13;;;6.82;;
37855;SDS011;23694;43.274;26.924;2023-05-19T13:20:33;9.70;;;6.32;;
37855;SDS011;23694;43.274;26.924;2023-05-19T13:23:00;11.13;;;6.28;;
37855;SDS011;23694;43.274;26.924;2023-05-19T13:25:27;10.05;;;5.97;;
37855;SDS011;23694;43.274;26.924;2023-05-19T13:27:53;10.15;;;6.30;;
37855;SDS011;23694;43.274;26.924;2023-05-19T13:30:19;8.90;;;5.93;;
37855;SDS011;23694;43.274;26.924;2023-05-19T13:32:46;9.18;;;6.10;;
37855;SDS011;23694;43.274;26.924;2023-05-19T13:35:13;17.70;;;6.63;;
37855;SDS011;23694;43.274;26.924;2023-05-19T13:37:40;10.38;;;6.47;;
37855;SDS011;23694;43.274;26.924;2023-05-19T13:40:07;12.05;;;5.90;;
37855;SDS011;23694;43.274;26.924;2023-05-19T13:42:34;8.90;;;5.45;;
37855;SDS011;23694;43.274;26.924;2023-05-19T13:45:00;9.02;;;6.03;;
37855;SDS011;23694;43.274;26.924;2023-05-19T13:47:27;9.30;;;6.15;;
37855;SDS011;23694;43.274;26.924;2023-05-19T13:49:53;7.47;;;5.65;;
37855;SDS011;23694;43.274;26.924;2023-05-19T13:52:19;9.77;;;5.72;;
37855;SDS011;23694;43.274;26.924;2023-05-19T13:54:46;9.63;;;6.18;;
37855;SDS011;23694;43.274;26.924;2023-05-19T13:57:14;11.02;;;6.00;;
37855;SDS011;23694;43.274;26.924;2023-05-19T13:59:40;9.00;;;5.38;;
37855;SDS011;23694;43.274;26.924;2023-05-19T14:02:07;11.82;;;6.10;;
37855;SDS011;23694;43.274;26.924;2023-05-19T14:04:36;13.05;;;6.78;;
37855;SDS011;23694;43.274;26.924;2023-05-19T14:07:06;11.93;;;6.03;;
37855;SDS011;23694;43.274;26.924;2023-05-19T14:09:32;13.48;;;6.25;;
37855;SDS011;23694;43.274;26.924;2023-05-19T14:11:58;9.90;;;6.28;;
37855;SDS011;23694;43.274;26.924;2023-05-19T14:14:25;11.55;;;7.20;;
37855;SDS011;23694;43.274;26.924;2023-05-19T14:16:51;11.82;;;6.88;;
37855;SDS011;23694;43.274;26.924;2023-05-19T14:19:17;15.00;;;6.65;;
37855;SDS011;23694;43.274;26.924;2023-05-19T14:21:43;11.02;;;6.25;;
37855;SDS011;23694;43.274;26.924;2023-05-19T14:24:09;13.63;;;6.80;;
37855;SDS011;23694;43.274;26.924;2023-05-19T14:26:35;12.20;;;7.05;;
37855;SDS011;23694;43.274;26.924;2023-05-19T14:29:01;12.23;;;6.15;;
37855;SDS011;23694;43.274;26.924;2023-05-19T14:31:27;13.88;;;6.35;;
37855;SDS011;23694;43.274;26.924;2023-05-19T14:33:53;11.75;;;6.18;;
37855;SDS011;23694;43.274;26.924;2023-05-19T14:36:20;10.30;;;5.47;;
37855;SDS011;23694;43.274;26.924;2023-05-19T14:38:46;15.57;;;6.07;;
37855;SDS011;23694;43.274;26.924;2023-05-19T14:41:12;11.55;;;6.60;;
37855;SDS011;23694;43.274;26.924;2023-05-19T14:43:38;9.35;;;6.80;;